logo
Search for airport 
image banner adimage banner adimage banner ad
image banner ad

LOAP - Waidhofen/Ybbs Kh

Located in District Waidhofen An Der Ybbs(Stadt), Austria

ICAO - , IATA -

Data provided by Airmate  

General information

Coordinates: N47°57'10" E14°47'17"
Elevation is 1279 feet MSL.
 
View others Airports in Lower Austria

Operational data

Special qualification required
Current time UTC:
Current local time:
Weather at : LOWL - Linz ( 54 km )
METAR: LOWL 171850Z AUTO 25006KT 9999 FEW034 BKN060 06/04 Q1009 NOSIG
TAF: TAF LOWL 171715Z 1718/1818 34006KT 9999 SCT020 BKN040 TX06/1812Z TN04/1803Z TEMPO 1718/1816 SHRA TEMPO 1719/1806 BKN012 TEMPO 1810/1816 34012KT FEW030CB BKN040 PROB30 TEMPO 1811/1814 VRB15G25KT 4000 TSRA
View NOTAMs / SUP AIP / TFR affecting this airport [VIEW]
Communications frequencies: [VIEW]

Runways:

Airport contact information

Address: District Waidhofen An Der Ybbs(Stadt) Austria

Satellite view of LOAP